Terminal Aerodrome Forecast
Issued by NWS Duluth, MN

Home | Current Version | Previous Version | Text Only | Print | Product List | Glossary On
Versions: 1 2 3 4 5 6 7 8 9 10 11 12 13 14 15 16 17 18 19 20 21 22 23 24 25
000
FTUS43 KDLH 262300 RRA
TAFDLH
TAF
KDLH 262341Z 2700/2724 24010KT P6SM VCTS FEW060CB SCT100
      TEMPO 2700/2704 2SM TSRA BKN035CB
     FM270400 28008KT P6SM SCT030 BKN100
     FM271000 29009KT P6SM VCSH SCT025 OVC060
      TEMPO 2714/2718 34013G20KT 5SM -SHRA BR BKN025 OVC040
     FM271800 02012KT 5SM -SHRA BKN025=

USA.gov is the U.S. government's official web portal to all federal, state and local government web resources and services.